KIND Airport Diagram

We have created a template for each of the higher traffic airports in the vZID airspace. They include KCMH, KCRW, KCVG, KDAY, KIND, KLEX and KSDF. You wil find usefull information including the airport diagram, weather, and specific airport procedures.

KIND Weather

[Source: ADDS]
METAR
KIND 300154Z 11013KT 10SM BKN060 BKN080 OVC250 13/07 A3000 RMK AO2 SLP159 T01280067 =
TAF
KIND 300201Z 3002/3106 11013KT P6SM OVC060 FM300800 11011KT P6SM VCSH OVC050 FM301200 12011KT P6SM -SHRA VCTS OVC050CB FM301400 12010KT P6SM -SHRA VCTS OVC040CB FM301700 15010KT P6SM -SHRA VCTS OVC025CB FM301900 16010KT P6SM -SHRA VCTS OVC040CB FM310000 17008KT P6SM SHRA OVC080 FM310300 17007KT P6SM SHRA OVC025 =

KIND Operations

Calm Wind Configuration is runways 23L and 23R

Runway 23L typically departs south and east

Runway 23R typicall departs north and west

New Scenery is available at FlightSim.com and Blueprint Simulations. On initial contact, arriving aircraft should notify the the controller which scenery they have.

FedEx pilots should expect runway 23L or 5R.

 

JSN Epic template designed by JoomlaShine.com